createdAt,value
2023-05-01T00:01:30.592Z,7.80
2023-05-01T00:03:58.013Z,7.50
2023-05-01T00:06:25.399Z,8.57
2023-05-01T00:08:52.459Z,7.72
2023-05-01T00:11:19.513Z,7.13
2023-05-01T00:13:46.533Z,8.48
2023-05-01T00:16:13.648Z,8.80
2023-05-01T00:18:40.718Z,8.98
2023-05-01T00:21:07.651Z,9.13
2023-05-01T00:23:34.660Z,8.95
2023-05-01T00:26:01.741Z,8.30
2023-05-01T00:28:29.199Z,10.18
2023-05-01T00:30:57.464Z,9.07
2023-05-01T00:33:24.469Z,10.55
2023-05-01T00:35:52.821Z,9.40
2023-05-01T00:38:19.880Z,10.20
2023-05-01T00:40:47.853Z,9.02
2023-05-01T00:43:14.964Z,10.25
2023-05-01T00:45:46.198Z,10.05
2023-05-01T00:48:13.583Z,9.65
2023-05-01T00:50:41.763Z,10.48
2023-05-01T00:53:08.812Z,10.48
2023-05-01T00:55:36.233Z,10.02
2023-05-01T00:58:03.829Z,9.43
2023-05-01T01:00:31.110Z,9.45
2023-05-01T01:02:58.339Z,8.93
2023-05-01T01:05:28.414Z,9.70
2023-05-01T01:08:21.971Z,9.20
2023-05-01T01:11:11.876Z,10.10
2023-05-01T01:13:57.343Z,10.18
2023-05-01T01:16:51.393Z,9.30
2023-05-01T01:19:22.191Z,9.55
2023-05-01T01:21:55.707Z,9.60
2023-05-01T01:24:51.275Z,8.60
2023-05-01T01:28:04.036Z,10.35
2023-05-01T01:31:12.193Z,9.37
2023-05-01T01:33:51.675Z,9.98
2023-05-01T01:36:47.475Z,9.20
2023-05-01T01:39:39.189Z,9.07
2023-05-01T01:42:12.375Z,8.75
2023-05-01T01:45:05.121Z,9.77
2023-05-01T01:47:34.365Z,10.52
2023-05-01T01:50:05.451Z,11.02
2023-05-01T01:52:33.875Z,11.52
2023-05-01T01:55:12.892Z,10.05
2023-05-01T01:57:43.902Z,11.18
2023-05-01T02:00:12.959Z,11.07
2023-05-01T02:02:41.375Z,11.40
2023-05-01T02:05:12.125Z,12.18
2023-05-01T02:07:41.054Z,11.83
2023-05-01T02:10:14.070Z,11.57
2023-05-01T02:12:46.443Z,13.03
2023-05-01T02:15:15.928Z,12.37
2023-05-01T02:17:42.975Z,12.60
2023-05-01T02:20:12.755Z,11.03
2023-05-01T02:22:44.248Z,11.52
2023-05-01T02:25:13.367Z,11.97
2023-05-01T02:28:14.595Z,10.50
2023-05-01T02:30:41.725Z,11.10
2023-05-01T02:33:09.164Z,10.68
2023-05-01T02:35:49.739Z,10.48
2023-05-01T02:38:17.261Z,9.77
2023-05-01T02:40:56.089Z,12.32
2023-05-01T02:43:24.134Z,11.43
2023-05-01T02:45:52.905Z,11.45
2023-05-01T02:48:24.954Z,11.43
2023-05-01T02:50:53.959Z,12.07
2023-05-01T02:53:22.363Z,12.57
2023-05-01T02:55:50.673Z,11.38
2023-05-01T02:58:19.416Z,11.17
2023-05-01T03:00:49.564Z,11.37
2023-05-01T03:03:17.561Z,12.05
2023-05-01T03:05:44.599Z,12.17
2023-05-01T03:08:11.638Z,10.93
2023-05-01T03:10:44.685Z,11.53
2023-05-01T03:13:11.988Z,12.05
2023-05-01T03:15:39.509Z,12.18
2023-05-01T03:18:07.111Z,12.40
2023-05-01T03:20:34.382Z,11.33
2023-05-01T03:23:01.696Z,10.87
2023-05-01T03:25:28.676Z,11.00
2023-05-01T03:27:55.625Z,10.30
2023-05-01T03:30:22.578Z,10.93
2023-05-01T03:32:49.793Z,10.50
2023-05-01T03:35:17.006Z,10.30
2023-05-01T03:37:44.094Z,9.77
2023-05-01T03:40:13.673Z,10.20
2023-05-01T03:42:40.650Z,10.50
2023-05-01T03:45:08.938Z,10.43
2023-05-01T03:47:35.915Z,10.53
2023-05-01T03:50:03.590Z,10.03
2023-05-01T03:52:30.596Z,10.30
2023-05-01T03:54:57.563Z,10.60
2023-05-01T03:57:24.901Z,10.63
2023-05-01T03:59:51.885Z,11.70
2023-05-01T04:02:19.048Z,11.50
2023-05-01T04:04:45.995Z,11.57
2023-05-01T04:07:13.859Z,13.20
2023-05-01T04:09:40.820Z,13.95
2023-05-01T04:12:07.760Z,13.75
2023-05-01T04:14:34.785Z,14.10
2023-05-01T04:17:02.003Z,14.00
2023-05-01T04:19:28.988Z,15.07
2023-05-01T04:21:55.926Z,14.40
2023-05-01T04:24:23.156Z,14.27
2023-05-01T04:26:50.474Z,15.67
2023-05-01T04:29:17.461Z,14.88
2023-05-01T04:31:44.786Z,16.07
2023-05-01T04:34:11.811Z,15.53
2023-05-01T04:36:38.858Z,17.73
2023-05-01T04:39:06.405Z,18.40
2023-05-01T04:41:33.408Z,19.10
2023-05-01T04:44:00.442Z,18.30
2023-05-01T04:46:27.485Z,19.45
2023-05-01T04:48:54.520Z,19.37
2023-05-01T04:51:21.542Z,19.33
2023-05-01T04:53:48.806Z,22.30
2023-05-01T04:56:15.810Z,21.13
2023-05-01T04:58:42.769Z,22.03
2023-05-01T05:01:10.306Z,24.30
2023-05-01T05:03:37.331Z,25.83
2023-05-01T05:06:04.892Z,27.03
2023-05-01T05:08:32.078Z,26.90
2023-05-01T05:11:00.071Z,27.67
2023-05-01T05:13:28.197Z,29.03
2023-05-01T05:15:55.396Z,29.47
2023-05-01T05:18:22.608Z,30.60
2023-05-01T05:20:49.780Z,30.13
2023-05-01T05:23:16.783Z,31.53
2023-05-01T05:25:43.754Z,31.17
2023-05-01T05:28:10.740Z,31.70
2023-05-01T05:30:37.669Z,31.70
2023-05-01T05:33:05.345Z,31.90
2023-05-01T05:35:32.365Z,33.13
2023-05-01T05:37:59.486Z,32.97
2023-05-01T05:40:26.466Z,34.40
2023-05-01T05:42:53.650Z,34.60
2023-05-01T05:45:20.872Z,32.47
2023-05-01T05:47:47.813Z,33.40
2023-05-01T05:50:15.177Z,34.53
2023-05-01T05:52:42.142Z,33.37
2023-05-01T05:55:09.583Z,33.27
2023-05-01T05:57:37.775Z,34.97
2023-05-01T06:00:05.766Z,33.37
2023-05-01T06:02:32.953Z,33.97
2023-05-01T06:05:00.014Z,34.77
2023-05-01T06:07:28.360Z,34.23
2023-05-01T06:09:55.943Z,34.53
2023-05-01T06:12:23.111Z,34.73
2023-05-01T06:14:50.624Z,34.17
2023-05-01T06:17:17.646Z,34.88
2023-05-01T06:19:44.580Z,33.80
2023-05-01T06:22:11.554Z,32.60
2023-05-01T06:24:39.804Z,33.70
2023-05-01T06:27:06.862Z,34.67
2023-05-01T06:29:33.800Z,34.95
2023-05-01T06:32:00.916Z,35.60
2023-05-01T06:34:27.846Z,32.63
2023-05-01T06:36:54.943Z,32.67
2023-05-01T06:39:21.939Z,33.30
2023-05-01T06:41:49.279Z,33.63
2023-05-01T06:44:16.933Z,31.70
2023-05-01T06:46:43.887Z,32.08
2023-05-01T06:49:11.120Z,32.67
2023-05-01T06:51:38.201Z,31.33
2023-05-01T06:54:05.296Z,31.02
2023-05-01T06:56:32.796Z,29.75
2023-05-01T06:58:59.656Z,30.08
2023-05-01T07:01:26.823Z,31.55
2023-05-01T07:03:53.809Z,31.15
2023-05-01T07:06:20.825Z,30.15
2023-05-01T07:08:49.176Z,31.02
2023-05-01T07:11:16.195Z,31.83
2023-05-01T07:13:43.126Z,32.10
2023-05-01T07:16:10.166Z,31.15
2023-05-01T07:18:37.915Z,29.75
2023-05-01T07:21:05.532Z,29.77
2023-05-01T07:23:32.509Z,30.08
2023-05-01T07:25:59.493Z,28.15
2023-05-01T07:28:26.418Z,28.50
2023-05-01T07:30:53.356Z,28.83
2023-05-01T07:33:20.441Z,28.60
2023-05-01T07:35:47.714Z,28.15
2023-05-01T07:38:16.797Z,28.20
2023-05-01T07:40:43.909Z,29.17
2023-05-01T07:43:11.807Z,26.83
2023-05-01T07:45:40.014Z,26.90
2023-05-01T07:48:07.230Z,26.95
2023-05-01T07:50:34.215Z,26.45
2023-05-01T07:53:01.179Z,26.60
2023-05-01T07:55:28.367Z,25.17
2023-05-01T07:57:55.350Z,24.20
2023-05-01T08:00:22.419Z,23.95
2023-05-01T08:02:49.462Z,24.70
2023-05-01T08:05:16.430Z,23.63
2023-05-01T08:07:43.415Z,24.63
2023-05-01T08:10:10.714Z,24.48
2023-05-01T08:12:37.712Z,25.00
2023-05-01T08:15:05.431Z,24.50
2023-05-01T08:17:32.415Z,23.05
2023-05-01T08:20:00.704Z,24.50
2023-05-01T08:22:27.794Z,24.55
2023-05-01T08:24:55.338Z,23.73
2023-05-01T08:27:22.486Z,22.33
2023-05-01T08:29:49.755Z,22.80
2023-05-01T08:32:18.700Z,23.33
2023-05-01T08:34:46.442Z,22.10
2023-05-01T08:37:13.415Z,21.80
2023-05-01T08:39:40.433Z,22.63
2023-05-01T08:42:08.303Z,22.50
2023-05-01T08:44:39.892Z,21.02
2023-05-01T08:47:17.289Z,21.50
2023-05-01T08:49:46.112Z,21.10
2023-05-01T08:52:15.427Z,21.60
2023-05-01T08:54:48.499Z,19.30
2023-05-01T08:57:16.055Z,19.52
2023-05-01T08:59:45.196Z,18.58
2023-05-01T09:02:12.394Z,20.05
2023-05-01T09:04:41.160Z,19.77
2023-05-01T09:07:09.499Z,18.98
2023-05-01T09:09:37.159Z,18.42
2023-05-01T09:12:27.131Z,17.77
2023-05-01T09:14:56.612Z,17.17
2023-05-01T09:17:25.078Z,17.65
2023-05-01T09:19:52.627Z,17.25
2023-05-01T09:22:20.500Z,15.95
2023-05-01T09:24:47.458Z,16.38
2023-05-01T09:27:15.300Z,15.45
2023-05-01T09:29:45.962Z,15.52
2023-05-01T09:32:28.441Z,16.65
2023-05-01T09:35:09.753Z,16.90
2023-05-01T09:37:36.831Z,17.90
2023-05-01T09:40:11.952Z,18.83
2023-05-01T09:42:53.078Z,19.90
2023-05-01T09:45:20.724Z,19.20
2023-05-01T09:47:48.665Z,18.33
2023-05-01T09:50:34.516Z,18.08
2023-05-01T09:53:04.816Z,20.15
2023-05-01T09:55:32.901Z,20.38
2023-05-01T09:57:59.991Z,18.65
2023-05-01T10:00:27.636Z,19.85
2023-05-01T10:02:56.113Z,19.33
2023-05-01T10:05:23.969Z,19.27
2023-05-01T10:08:02.378Z,19.77
2023-05-01T10:10:29.756Z,19.50
2023-05-01T10:12:57.002Z,19.38
2023-05-01T10:15:36.506Z,20.48
2023-05-01T10:18:05.174Z,18.30
2023-05-01T10:20:32.748Z,17.77
2023-05-01T10:23:02.646Z,17.50
2023-05-01T10:25:30.371Z,17.92
2023-05-01T10:27:57.912Z,18.17
2023-05-01T10:30:26.719Z,16.40
2023-05-01T10:32:53.751Z,17.38
2023-05-01T10:35:27.305Z,16.52
2023-05-01T10:38:07.157Z,17.48
2023-05-01T10:40:40.317Z,17.08
2023-05-01T10:43:26.292Z,18.42
2023-05-01T10:46:15.498Z,16.13
2023-05-01T10:48:42.510Z,17.90
2023-05-01T10:51:21.385Z,17.98
2023-05-01T10:54:10.532Z,15.75
2023-05-01T10:56:37.427Z,18.10
2023-05-01T10:59:04.993Z,21.58
2023-05-01T11:01:36.592Z,16.00
2023-05-01T11:04:11.377Z,15.50
2023-05-01T11:06:38.451Z,15.73
2023-05-01T11:09:43.616Z,15.07
2023-05-01T11:12:16.886Z,15.85
2023-05-01T11:14:57.467Z,32.28
2023-05-01T11:17:43.082Z,20.67
2023-05-01T11:20:11.106Z,17.70
2023-05-01T11:22:47.266Z,16.92
2023-05-01T11:25:23.278Z,17.02
2023-05-01T11:27:56.296Z,18.10
2023-05-01T11:30:23.490Z,18.05
2023-05-01T11:32:52.006Z,20.23
2023-05-01T11:35:24.397Z,19.00
2023-05-01T11:37:51.762Z,27.65
2023-05-01T11:40:27.091Z,18.13
2023-05-01T11:43:05.978Z,19.95
2023-05-01T11:45:34.871Z,19.38
2023-05-01T11:48:05.540Z,18.80
2023-05-01T11:50:39.789Z,19.85
2023-05-01T11:53:17.737Z,19.17
2023-05-01T11:55:45.678Z,17.67
2023-05-01T11:58:13.476Z,18.45
2023-05-01T12:00:43.655Z,15.20
2023-05-01T12:03:14.076Z,15.23
2023-05-01T12:05:45.580Z,15.85
2023-05-01T12:08:22.248Z,16.33
2023-05-01T12:10:58.035Z,17.00
2023-05-01T12:13:27.035Z,16.70
2023-05-01T12:15:56.369Z,15.40
2023-05-01T12:18:23.711Z,12.85
2023-05-01T12:20:54.374Z,11.25
2023-05-01T12:23:35.997Z,13.18
2023-05-01T12:26:16.419Z,14.65
2023-05-01T12:29:05.583Z,13.43
2023-05-01T12:31:33.796Z,14.35
2023-05-01T12:34:06.625Z,14.07
2023-05-01T12:36:36.581Z,16.27
2023-05-01T12:39:14.629Z,16.38
2023-05-01T12:41:43.488Z,16.25
2023-05-01T12:44:27.401Z,16.63
2023-05-01T12:47:07.332Z,17.48
2023-05-01T12:49:37.102Z,16.83
2023-05-01T12:52:08.109Z,15.48
2023-05-01T12:54:38.121Z,15.73
2023-05-01T12:57:10.964Z,14.95
2023-05-01T12:59:40.017Z,14.88
2023-05-01T13:02:15.037Z,15.68
2023-05-01T13:04:43.870Z,14.95
2023-05-01T13:07:19.831Z,15.65
2023-05-01T13:09:58.675Z,15.30
2023-05-01T13:12:28.055Z,15.20
2023-05-01T13:14:55.353Z,15.45
2023-05-01T13:17:27.929Z,14.48
2023-05-01T13:19:57.064Z,14.20
2023-05-01T13:22:37.493Z,13.90
2023-05-01T13:25:20.607Z,14.70
2023-05-01T13:27:53.302Z,13.90
2023-05-01T13:30:30.892Z,13.43
2023-05-01T13:32:57.933Z,14.27
2023-05-01T13:35:26.939Z,16.25
2023-05-01T13:37:54.532Z,16.23
2023-05-01T13:40:22.246Z,17.08
2023-05-01T13:42:53.021Z,15.77
2023-05-01T13:45:23.686Z,15.80
2023-05-01T13:47:52.081Z,16.67
2023-05-01T13:50:19.342Z,16.00
2023-05-01T13:52:46.336Z,14.65
2023-05-01T13:55:14.769Z,14.55
2023-05-01T13:57:43.208Z,14.65
2023-05-01T14:00:17.812Z,14.60
2023-05-01T14:02:48.725Z,13.75
2023-05-01T14:05:16.750Z,12.93
2023-05-01T14:08:02.466Z,13.93
2023-05-01T14:10:29.773Z,13.15
2023-05-01T14:12:59.830Z,13.50
2023-05-01T14:15:28.777Z,14.00
2023-05-01T14:17:55.868Z,15.18
2023-05-01T14:20:25.816Z,14.27
2023-05-01T14:22:53.574Z,13.02
2023-05-01T14:25:34.074Z,9.82
2023-05-01T14:28:08.126Z,9.48
2023-05-01T14:30:38.666Z,8.55
2023-05-01T14:33:15.662Z,9.82
2023-05-01T14:36:02.934Z,8.80
2023-05-01T14:38:38.622Z,8.77
2023-05-01T14:41:06.041Z,7.15
2023-05-01T14:43:34.263Z,8.30
2023-05-01T14:46:01.375Z,9.65
2023-05-01T14:48:35.996Z,8.35
2023-05-01T14:51:06.469Z,9.20
2023-05-01T14:53:33.626Z,7.70
2023-05-01T14:56:00.731Z,7.18
2023-05-01T14:58:27.722Z,9.18
2023-05-01T15:00:55.167Z,8.15
2023-05-01T15:03:22.283Z,8.50
2023-05-01T15:05:49.371Z,6.70
2023-05-01T15:08:16.749Z,6.40
2023-05-01T15:10:44.998Z,7.63
2023-05-01T15:13:12.099Z,7.05
2023-05-01T15:15:39.113Z,5.40
2023-05-01T15:18:06.871Z,6.93
2023-05-01T15:20:33.857Z,7.20
2023-05-01T15:23:01.004Z,6.40
2023-05-01T15:25:28.220Z,6.75
2023-05-01T15:27:55.687Z,7.05
2023-05-01T15:30:22.943Z,7.32
2023-05-01T15:32:50.127Z,6.80
2023-05-01T15:35:17.794Z,6.07
2023-05-01T15:37:44.781Z,6.45
2023-05-01T15:40:11.995Z,7.10
2023-05-01T15:42:39.833Z,8.23
2023-05-01T15:45:08.065Z,7.20
2023-05-01T15:47:35.071Z,7.70
2023-05-01T15:50:02.348Z,7.60
2023-05-01T15:52:29.576Z,5.65
2023-05-01T15:54:56.576Z,6.53
2023-05-01T15:57:23.643Z,7.10
2023-05-01T15:59:53.990Z,6.35
2023-05-01T16:02:21.637Z,6.25
2023-05-01T16:04:48.900Z,5.68
2023-05-01T16:07:16.032Z,5.40
2023-05-01T16:09:43.035Z,6.53
2023-05-01T16:12:10.063Z,4.60
2023-05-01T16:14:41.181Z,4.85
2023-05-01T16:17:08.388Z,5.53
2023-05-01T16:19:37.031Z,6.88
2023-05-01T16:22:06.763Z,6.90
2023-05-01T16:24:34.763Z,8.65
2023-05-01T16:27:02.211Z,7.22
2023-05-01T16:29:32.490Z,7.30
2023-05-01T16:31:59.889Z,7.40
2023-05-01T16:34:27.590Z,7.50
2023-05-01T16:36:56.427Z,7.15
2023-05-01T16:39:23.635Z,7.32
2023-05-01T16:41:56.732Z,7.40
2023-05-01T16:44:23.711Z,7.85
2023-05-01T16:46:56.461Z,8.05
2023-05-01T16:49:27.285Z,7.85
2023-05-01T16:51:57.057Z,8.02
2023-05-01T16:54:26.922Z,7.63
2023-05-01T16:56:53.945Z,8.57
2023-05-01T16:59:20.932Z,8.10
2023-05-01T17:01:47.928Z,8.60
2023-05-01T17:04:15.288Z,8.32
2023-05-01T17:06:42.363Z,8.07
2023-05-01T17:09:09.357Z,8.68
2023-05-01T17:11:36.371Z,8.75
2023-05-01T17:14:03.702Z,9.07
2023-05-01T17:16:32.413Z,8.80
2023-05-01T17:18:59.432Z,9.30
2023-05-01T17:21:28.295Z,9.25
2023-05-01T17:23:55.259Z,9.63
2023-05-01T17:26:22.912Z,9.65
2023-05-01T17:28:50.594Z,10.27
2023-05-01T17:31:18.774Z,10.68
2023-05-01T17:33:47.466Z,9.98
2023-05-01T17:36:14.476Z,9.32
2023-05-01T17:38:41.855Z,9.43
2023-05-01T17:41:08.801Z,9.52
2023-05-01T17:43:35.791Z,10.02
2023-05-01T17:46:04.882Z,9.52
2023-05-01T17:48:31.982Z,9.50
2023-05-01T17:50:59.094Z,9.90
2023-05-01T17:53:26.118Z,9.88
2023-05-01T17:55:53.212Z,9.48
2023-05-01T17:58:20.894Z,9.63
2023-05-01T18:00:48.193Z,8.65
2023-05-01T18:03:15.241Z,8.30
2023-05-01T18:05:42.423Z,7.82
2023-05-01T18:08:09.374Z,7.63
2023-05-01T18:10:36.345Z,7.00
2023-05-01T18:13:03.341Z,7.30
2023-05-01T18:15:30.342Z,6.72
2023-05-01T18:17:57.356Z,7.80
2023-05-01T18:20:24.648Z,7.50
2023-05-01T18:22:54.222Z,7.35
2023-05-01T18:25:21.248Z,7.22
2023-05-01T18:27:49.153Z,6.97
2023-05-01T18:30:17.005Z,6.40
2023-05-01T18:32:47.507Z,6.72
2023-05-01T18:35:17.184Z,6.57
2023-05-01T18:37:44.341Z,6.78
2023-05-01T18:40:12.648Z,6.80
2023-05-01T18:42:43.119Z,7.25
2023-05-01T18:45:10.542Z,6.78
2023-05-01T18:47:37.540Z,6.53
2023-05-01T18:50:06.283Z,6.15
2023-05-01T18:52:33.318Z,5.57
2023-05-01T18:55:00.356Z,6.25
2023-05-01T18:57:28.914Z,6.18
2023-05-01T18:59:56.037Z,5.90
2023-05-01T19:02:23.237Z,4.88
2023-05-01T19:04:57.353Z,5.55
2023-05-01T19:07:26.554Z,5.22
2023-05-01T19:09:53.693Z,5.72
2023-05-01T19:12:20.728Z,6.35
2023-05-01T19:14:47.763Z,6.38
2023-05-01T19:17:14.844Z,6.18
2023-05-01T19:19:41.855Z,6.78
2023-05-01T19:22:08.911Z,7.38
2023-05-01T19:24:35.894Z,7.03
2023-05-01T19:27:03.363Z,7.05
2023-05-01T19:29:33.474Z,7.15
2023-05-01T19:32:00.661Z,7.85
2023-05-01T19:34:28.449Z,7.82
2023-05-01T19:36:57.092Z,8.05
2023-05-01T19:39:24.344Z,8.32
2023-05-01T19:41:52.023Z,8.93
2023-05-01T19:44:19.136Z,9.13
2023-05-01T19:46:46.146Z,9.43
2023-05-01T19:49:13.129Z,9.45
2023-05-01T19:51:40.136Z,9.48
2023-05-01T19:54:07.074Z,9.40
2023-05-01T19:56:34.699Z,9.50
2023-05-01T19:59:01.641Z,10.47
2023-05-01T20:01:31.341Z,10.50
2023-05-01T20:03:58.484Z,10.30
2023-05-01T20:06:25.607Z,10.17
2023-05-01T20:08:52.715Z,10.13
2023-05-01T20:11:19.715Z,10.87
2023-05-01T20:13:46.992Z,10.20
2023-05-01T20:16:13.972Z,10.40
2023-05-01T20:18:40.979Z,9.98
2023-05-01T20:21:07.951Z,10.80
2023-05-01T20:23:34.996Z,10.30
2023-05-01T20:26:02.041Z,10.43
2023-05-01T20:28:29.296Z,10.00
2023-05-01T20:30:56.983Z,10.87
2023-05-01T20:33:24.642Z,11.13
2023-05-01T20:35:51.736Z,10.20
2023-05-01T20:38:18.693Z,10.60
2023-05-01T20:40:45.621Z,10.20
2023-05-01T20:43:12.975Z,10.10
2023-05-01T20:45:40.187Z,12.10
2023-05-01T20:48:07.483Z,11.40
2023-05-01T20:50:35.495Z,12.13
2023-05-01T20:53:02.529Z,11.43
2023-05-01T20:55:30.018Z,12.27
2023-05-01T20:57:57.012Z,12.90
2023-05-01T21:00:23.985Z,11.33
2023-05-01T21:02:52.773Z,12.17
2023-05-01T21:05:20.108Z,12.30
2023-05-01T21:07:48.017Z,11.97
2023-05-01T21:10:16.617Z,11.57
2023-05-01T21:12:43.881Z,10.43
2023-05-01T21:15:11.882Z,11.53
2023-05-01T21:17:40.773Z,11.57
2023-05-01T21:20:17.189Z,13.43
2023-05-01T21:22:45.713Z,11.87
2023-05-01T21:25:19.814Z,13.07
2023-05-01T21:27:46.754Z,13.13
2023-05-01T21:30:18.204Z,12.17
2023-05-01T21:32:45.394Z,12.17
2023-05-01T21:35:16.607Z,12.57
2023-05-01T21:37:45.099Z,13.33
2023-05-01T21:40:14.592Z,12.00
2023-05-01T21:42:41.755Z,12.67
2023-05-01T21:45:14.364Z,12.90
2023-05-01T21:47:47.875Z,13.10
2023-05-01T21:50:18.083Z,14.67
2023-05-01T21:52:48.828Z,14.00
2023-05-01T21:55:22.263Z,13.33
2023-05-01T21:57:53.357Z,13.37
2023-05-01T22:00:21.476Z,13.17
2023-05-01T22:02:50.320Z,13.60
2023-05-01T22:05:22.557Z,13.40
2023-05-01T22:07:52.196Z,12.53
2023-05-01T22:10:20.242Z,13.30
2023-05-01T22:12:49.241Z,11.83
2023-05-01T22:15:16.828Z,13.10
2023-05-01T22:17:45.049Z,13.17
2023-05-01T22:20:12.471Z,14.07
2023-05-01T22:22:41.500Z,13.43
2023-05-01T22:25:10.158Z,12.70
2023-05-01T22:27:37.784Z,12.93
2023-05-01T22:30:06.245Z,13.43
2023-05-01T22:32:33.776Z,13.03
2023-05-01T22:35:01.009Z,14.23
2023-05-01T22:37:28.041Z,13.33
2023-05-01T22:39:55.070Z,12.87
2023-05-01T22:42:23.060Z,15.37
2023-05-01T22:44:50.130Z,13.70
2023-05-01T22:47:17.529Z,13.20
2023-05-01T22:49:44.536Z,13.93
2023-05-01T22:52:11.525Z,15.80
2023-05-01T22:54:38.449Z,13.90
2023-05-01T22:57:05.434Z,14.20
2023-05-01T22:59:32.447Z,13.00
2023-05-01T23:02:04.006Z,13.77
2023-05-01T23:04:32.369Z,13.40
2023-05-01T23:06:59.435Z,13.73
2023-05-01T23:09:26.531Z,14.93
2023-05-01T23:11:53.631Z,14.33
2023-05-01T23:14:20.754Z,14.87
2023-05-01T23:16:47.934Z,15.73
2023-05-01T23:19:24.092Z,14.60
2023-05-01T23:22:09.807Z,14.73
2023-05-01T23:24:49.281Z,14.57
2023-05-01T23:27:18.132Z,16.13
2023-05-01T23:29:58.702Z,16.03
2023-05-01T23:32:29.468Z,15.57
2023-05-01T23:35:14.097Z,15.17
2023-05-01T23:37:41.836Z,15.87
2023-05-01T23:40:09.597Z,15.63
2023-05-01T23:42:38.253Z,17.03
2023-05-01T23:45:07.273Z,17.13
2023-05-01T23:47:34.444Z,16.87
2023-05-01T23:50:02.333Z,16.87
2023-05-01T23:52:29.629Z,16.50
2023-05-01T23:54:56.589Z,18.20
2023-05-01T23:57:23.615Z,18.80
2023-05-01T23:59:50.565Z,16.77
